Time;durP1;ratioP1;P1;durP2;ratioP2;P2;SDS_P1;SDS_P2;PMS_P1;PMS_P2;Temp;Humidity;BMP_temperature;BMP_pressure;BME280_temperature;BME280_humidity;BME280_pressure;Samples;Min_cycle;Max_cycle;Signal;HPM_P1;HPM_P2
2021/05/06 00:35:47;;;;;;;19.75;2.28;;;;;;;-146.18;100.00;67994.34;9979001;29;20056;-67
2021/05/06 00:46:15;;;;;;;13.60;2.65;;;;;;;-146.18;100.00;67994.34;9979833;29;20059;-68
2021/05/06 01:06:38;;;;;;;16.83;2.55;;;;;;;-146.18;100.00;67994.34;9986604;29;20056;-68
2021/05/06 01:11:41;;;;;;;16.67;1.80;;;;;;;-146.18;100.00;67994.34;9991736;29;20135;-68
2021/05/06 01:16:37;;;;;;;16.58;2.13;;;;;;;-146.18;100.00;67994.34;9990076;29;20044;-69
2021/05/06 01:21:34;;;;;;;17.77;2.08;;;;;;;-146.18;100.00;67994.34;9982826;29;22097;-69
2021/05/06 01:26:39;;;;;;;18.98;2.20;;;;;;;-146.18;100.00;67994.34;9996949;29;20565;-69
2021/05/06 01:31:40;;;;;;;10.63;2.13;;;;;;;-146.18;100.00;67994.34;9976848;29;20099;-69
2021/05/06 01:36:51;;;;;;;18.60;3.28;;;;;;;-146.18;100.00;67994.34;9980384;29;20044;-68
2021/05/06 01:47:36;;;;;;;14.82;1.73;;;;;;;-146.18;100.00;67994.34;9992602;29;20107;-68
2021/05/06 01:57:42;;;;;;;21.25;2.65;;;;;;;-146.18;100.00;67994.34;9986749;29;20060;-68
2021/05/06 02:02:39;;;;;;;13.35;2.38;;;;;;;-146.18;100.00;67994.34;9983629;29;20056;-69
2021/05/06 02:07:38;;;;;;;17.75;2.40;;;;;;;-146.18;100.00;67994.34;9991666;29;20136;-69
2021/05/06 02:12:34;;;;;;;15.35;2.08;;;;;;;-146.18;100.00;67994.34;9984257;29;20056;-69
2021/05/06 02:17:33;;;;;;;12.45;2.47;;;;;;;-146.18;100.00;67994.34;9990366;29;20743;-67
2021/05/06 02:22:29;;;;;;;15.07;2.00;;;;;;;-146.18;100.00;67994.34;9980255;29;20048;-68
2021/05/06 02:27:26;;;;;;;15.50;2.28;;;;;;;-146.18;100.00;67994.34;9985451;29;20056;-68
2021/05/06 02:32:22;;;;;;;19.10;2.42;;;;;;;-146.18;100.00;67994.34;9992320;29;20055;-68
2021/05/06 02:37:18;;;;;;;14.55;2.50;;;;;;;-146.18;100.00;67994.34;9984970;29;20052;-67
2021/05/06 02:42:16;;;;;;;17.17;2.10;;;;;;;-146.18;100.00;67994.34;9991224;29;20107;-67
2021/05/06 02:47:12;;;;;;;11.55;2.05;;;;;;;-146.18;100.00;67994.34;9984018;29;20048;-67
2021/05/06 02:52:13;;;;;;;12.27;1.80;;;;;;;-146.18;100.00;67994.34;9979402;29;20056;-67
2021/05/06 02:57:21;;;;;;;18.17;2.42;;;;;;;-146.18;100.00;67994.34;9973893;29;20107;-68
2021/05/06 03:07:34;;;;;;;16.52;1.75;;;;;;;-146.18;100.00;67994.34;9982871;29;20090;-67
2021/05/06 03:12:56;;;;;;;8.93;1.70;;;;;;;-146.18;100.00;67994.34;9982952;29;20099;-68
2021/05/06 03:23:06;;;;;;;12.77;1.70;;;;;;;-146.18;100.00;67994.34;9985224;29;20047;-68
2021/05/06 03:28:10;;;;;;;16.17;1.85;;;;;;;-146.18;100.00;67994.34;9987089;29;20048;-68
2021/05/06 04:30:42;;;;;;;14.88;2.38;;;;;;;-146.18;100.00;67994.34;9981841;29;20083;-68
2021/05/06 04:35:40;;;;;;;9.55;1.52;;;;;;;-146.18;100.00;67994.34;9990689;29;20804;-68
2021/05/06 04:55:43;;;;;;;16.63;2.40;;;;;;;-146.18;100.00;67994.34;9977401;29;20054;-68
2021/05/06 05:05:54;;;;;;;12.57;2.40;;;;;;;-146.18;100.00;67994.34;9974461;29;20490;-67
2021/05/06 05:11:08;;;;;;;9.52;1.27;;;;;;;-146.18;100.00;67994.34;9982186;29;20099;-67
2021/05/06 05:26:15;;;;;;;15.07;2.80;;;;;;;-146.18;100.00;67994.34;9985751;29;20084;-68
2021/05/06 05:31:12;;;;;;;10.68;1.70;;;;;;;-146.18;100.00;67994.34;9983923;29;20080;-68
2021/05/06 05:36:14;;;;;;;13.93;2.40;;;;;;;-146.18;100.00;67994.34;9987402;29;20096;-69
2021/05/06 05:56:55;;;;;;;8.77;2.65;;;;;;;-146.18;100.00;67994.34;9968828;29;20044;-68
2021/05/06 06:01:51;;;;;;;9.30;2.08;;;;;;;-146.18;100.00;67994.34;9984287;29;20049;-68
2021/05/06 06:06:47;;;;;;;17.30;2.97;;;;;;;-146.18;100.00;67994.34;9980411;29;20048;-70
2021/05/06 06:11:43;;;;;;;9.60;1.75;;;;;;;-146.18;100.00;67994.34;9985425;29;20044;-67
2021/05/06 06:16:41;;;;;;;12.95;1.90;;;;;;;-146.18;100.00;67994.34;9976936;29;20482;-67
2021/05/06 06:26:34;;;;;;;14.05;2.35;;;;;;;-146.18;100.00;67994.34;9979895;29;20072;-67
2021/05/06 06:31:46;;;;;;;8.75;2.00;;;;;;;-146.18;100.00;67994.34;9979609;29;20051;-67
2021/05/06 06:36:44;;;;;;;12.20;1.83;;;;;;;-146.18;100.00;67994.34;9985285;29;20068;-68
2021/05/06 06:41:42;;;;;;;9.90;2.13;;;;;;;-146.18;100.00;67994.34;9964477;29;20051;-67
2021/05/06 06:46:38;;;;;;;13.65;2.38;;;;;;;-146.18;100.00;67994.34;9973416;29;20056;-68
2021/05/06 06:51:34;;;;;;;12.50;2.20;;;;;;;-146.18;100.00;67994.34;9971816;29;20056;-68
2021/05/06 06:56:30;;;;;;;15.85;2.60;;;;;;;-146.18;100.00;67994.34;9979703;29;20063;-67
2021/05/06 07:01:26;;;;;;;12.85;2.75;;;;;;;-146.18;100.00;67994.34;9967606;29;20646;-67
2021/05/06 07:06:22;;;;;;;11.45;2.50;;;;;;;-146.18;100.00;67994.34;9969272;29;20083;-67
2021/05/06 07:11:17;;;;;;;13.35;2.40;;;;;;;-146.18;100.00;67994.34;9982773;29;20439;-68
2021/05/06 07:16:13;;;;;;;13.68;1.83;;;;;;;-146.18;100.00;67994.34;9971103;29;20079;-69
2021/05/06 07:21:10;;;;;;;15.43;2.70;;;;;;;-146.18;100.00;67994.34;9973866;29;20072;-68
2021/05/06 07:26:06;;;;;;;11.57;2.15;;;;;;;-146.18;100.00;67994.34;9981272;29;20116;-68
2021/05/06 07:31:06;;;;;;;16.75;2.17;;;;;;;-146.18;100.00;67994.34;9981533;29;20574;-67
2021/05/06 07:36:05;;;;;;;11.65;2.03;;;;;;;-146.18;100.00;67994.34;9974429;29;20611;-68
2021/05/06 07:41:05;;;;;;;21.95;3.25;;;;;;;-146.18;100.00;67994.34;9970887;29;20051;-68
2021/05/06 07:46:06;;;;;;;9.02;1.38;;;;;;;-146.18;100.00;67994.34;9976953;29;20103;-67
2021/05/06 07:51:06;;;;;;;8.38;1.90;;;;;;;-146.18;100.00;67994.34;9982137;29;20052;-68
2021/05/06 07:56:06;;;;;;;13.13;2.20;;;;;;;-146.18;100.00;67994.34;9981430;29;20048;-69
2021/05/06 08:01:02;;;;;;;11.23;2.20;;;;;;;-146.18;100.00;67994.34;9987312;29;20055;-68
2021/05/06 08:05:58;;;;;;;13.45;2.72;;;;;;;-146.18;100.00;67994.34;9985846;29;20046;-69
2021/05/06 08:10:56;;;;;;;10.45;1.88;;;;;;;-146.18;100.00;67994.34;9989134;29;20056;-69
2021/05/06 08:15:54;;;;;;;13.75;1.60;;;;;;;-146.18;100.00;67994.34;9979930;29;20052;-68
2021/05/06 08:20:51;;;;;;;13.20;1.70;;;;;;;-146.18;100.00;67994.34;9982239;29;20044;-69
2021/05/06 08:25:49;;;;;;;15.75;2.63;;;;;;;-146.18;100.00;67994.34;9973410;29;20137;-69
2021/05/06 08:30:52;;;;;;;12.05;2.03;;;;;;;-146.18;100.00;67994.34;9981294;29;20043;-69
2021/05/06 08:35:48;;;;;;;6.07;1.52;;;;;;;-146.18;100.00;67994.34;9977326;29;20044;-69
2021/05/06 08:40:45;;;;;;;11.23;1.83;;;;;;;-146.18;100.00;67994.34;9987300;29;20052;-69
2021/05/06 08:45:46;;;;;;;9.75;1.48;;;;;;;-146.18;100.00;67994.34;9970831;29;20525;-68
2021/05/06 08:50:44;;;;;;;8.55;1.35;;;;;;;-146.18;100.00;67994.34;9982298;29;20521;-69
2021/05/06 08:55:41;;;;;;;10.30;1.67;;;;;;;-146.18;100.00;67994.34;9983347;29;20505;-68
2021/05/06 09:00:41;;;;;;;11.10;1.98;;;;;;;-146.18;100.00;67994.34;9960714;29;20052;-69
2021/05/06 09:06:17;;;;;;;8.55;1.50;;;;;;;-146.18;100.00;67994.34;9964495;29;20934;-69
2021/05/06 09:11:14;;;;;;;6.75;0.95;;;;;;;-146.18;100.00;67994.34;9975996;29;20384;-69
2021/05/06 09:16:10;;;;;;;14.68;1.33;;;;;;;-146.18;100.00;67994.34;9981044;29;20045;-69
2021/05/06 09:21:10;;;;;;;9.48;1.40;;;;;;;-146.18;100.00;67994.34;9970479;29;20059;-69
2021/05/06 09:26:06;;;;;;;8.18;1.30;;;;;;;-146.18;100.00;67994.34;9986069;29;20099;-68
2021/05/06 09:31:07;;;;;;;6.63;1.33;;;;;;;-146.18;100.00;67994.34;9982256;29;20067;-68
2021/05/06 09:36:12;;;;;;;10.05;1.80;;;;;;;-146.18;100.00;67994.34;9982204;29;21782;-69
2021/05/06 09:41:08;;;;;;;4.65;1.13;;;;;;;-146.18;100.00;67994.34;9966028;29;20107;-69
2021/05/06 09:46:21;;;;;;;4.88;1.23;;;;;;;-146.18;100.00;67994.34;9986420;29;20047;-69
2021/05/06 09:51:32;;;;;;;7.72;1.60;;;;;;;-146.18;100.00;67994.34;9971067;29;20119;-69
2021/05/06 09:56:28;;;;;;;10.60;2.20;;;;;;;-146.18;100.00;67994.34;9987856;29;20048;-69
2021/05/06 10:01:36;;;;;;;6.97;1.33;;;;;;;-146.18;100.00;67994.34;9975645;29;20045;-68
2021/05/06 10:06:32;;;;;;;8.73;1.50;;;;;;;-146.18;100.00;67994.34;9976411;29;20112;-68
2021/05/06 10:11:28;;;;;;;6.68;1.30;;;;;;;-146.18;100.00;67994.34;9980691;29;20063;-68
2021/05/06 10:16:25;;;;;;;6.82;1.48;;;;;;;-146.18;100.00;67994.34;9984042;29;20047;-70
2021/05/06 10:21:22;;;;;;;16.13;1.67;;;;;;;-146.18;100.00;67994.34;9989578;29;20733;-69
2021/05/06 10:26:19;;;;;;;6.30;1.05;;;;;;;-146.18;100.00;67994.34;9984923;29;20052;-70
2021/05/06 10:31:15;;;;;;;5.88;1.05;;;;;;;-146.18;100.00;67994.34;9990234;29;20052;-69
2021/05/06 10:36:11;;;;;;;4.40;1.00;;;;;;;-146.18;100.00;67994.34;9987233;29;20098;-68
2021/05/06 10:41:22;;;;;;;4.68;0.73;;;;;;;-146.18;100.00;67994.34;9989192;29;20470;-69
2021/05/06 10:46:18;;;;;;;5.20;1.40;;;;;;;-146.18;100.00;67994.34;9990510;29;20506;-68
2021/05/06 10:51:48;;;;;;;4.85;1.15;;;;;;;-146.18;100.00;67994.34;9989381;29;20056;-70
2021/05/06 10:56:44;;;;;;;9.70;1.55;;;;;;;-146.18;100.00;67994.34;9970695;29;21729;-68
2021/05/06 11:01:40;;;;;;;5.18;1.35;;;;;;;-146.18;100.00;67994.34;9990576;29;20044;-68
2021/05/06 11:06:40;;;;;;;9.18;1.38;;;;;;;-146.18;100.00;67994.34;9990520;29;20692;-68
2021/05/06 11:11:36;;;;;;;7.10;1.83;;;;;;;-146.18;100.00;67994.34;9989760;29;20533;-66
2021/05/06 11:16:34;;;;;;;13.55;2.30;;;;;;;-146.18;100.00;67994.34;9989812;29;20059;-69
2021/05/06 11:21:31;;;;;;;9.50;1.70;;;;;;;-146.18;100.00;67994.34;9970774;29;20250;-69
2021/05/06 11:26:27;;;;;;;7.97;1.30;;;;;;;-146.18;100.00;67994.34;9975626;29;20047;-70
2021/05/06 11:31:46;;;;;;;4.63;0.75;;;;;;;-146.18;100.00;67994.34;9982362;29;20044;-69
2021/05/06 11:36:42;;;;;;;7.53;1.00;;;;;;;-146.18;100.00;67994.34;9982572;29;20124;-69
2021/05/06 11:41:43;;;;;;;2.22;0.70;;;;;;;-146.18;100.00;67994.34;9977460;29;20077;-69
2021/05/06 11:46:40;;;;;;;6.10;0.90;;;;;;;-146.18;100.00;67994.34;9973554;29;20051;-68
2021/05/06 11:51:44;;;;;;;3.47;0.80;;;;;;;-146.18;100.00;67994.34;9985453;29;20056;-69
2021/05/06 11:56:49;;;;;;;5.45;1.30;;;;;;;-146.18;100.00;67994.34;9979845;29;20052;-68
2021/05/06 12:01:46;;;;;;;4.20;0.93;;;;;;;-146.18;100.00;67994.34;9969692;29;20041;-68
2021/05/06 12:06:42;;;;;;;5.95;0.80;;;;;;;-146.18;100.00;67994.34;9971871;29;20095;-68
2021/05/06 12:11:41;;;;;;;7.30;1.65;;;;;;;-146.18;100.00;67994.34;9974473;29;20062;-68
2021/05/06 12:16:38;;;;;;;5.40;0.93;;;;;;;-146.18;100.00;67994.34;9971267;29;20554;-67
2021/05/06 12:21:35;;;;;;;5.15;1.05;;;;;;;-146.18;100.00;67994.34;9977304;29;20052;-66
2021/05/06 12:26:32;;;;;;;5.32;1.50;;;;;;;-146.18;100.00;67994.34;9975845;29;20048;-67
2021/05/06 12:31:29;;;;;;;4.70;1.05;;;;;;;-146.18;100.00;67994.34;9986760;29;20090;-67
2021/05/06 12:36:25;;;;;;;5.85;1.02;;;;;;;-146.18;100.00;67994.34;9971601;29;20044;-69
2021/05/06 12:41:21;;;;;;;5.28;0.95;;;;;;;-146.18;100.00;67994.34;9979261;29;20048;-68
2021/05/06 12:46:27;;;;;;;6.00;1.08;;;;;;;-146.18;100.00;67994.34;9977864;29;20048;-68
2021/05/06 12:51:29;;;;;;;6.50;1.40;;;;;;;-146.18;100.00;67994.34;9963402;29;20044;-67
2021/05/06 12:56:28;;;;;;;6.45;1.30;;;;;;;-146.18;100.00;67994.34;9982790;29;20052;-68
2021/05/06 13:01:32;;;;;;;4.53;1.10;;;;;;;-146.18;100.00;67994.34;9989976;29;20056;-67
2021/05/06 13:06:32;;;;;;;7.50;1.63;;;;;;;-146.18;100.00;67994.34;9983645;29;20412;-68
2021/05/06 13:11:29;;;;;;;5.47;1.10;;;;;;;-146.18;100.00;67994.34;9980642;29;20704;-67
2021/05/06 13:16:46;;;;;;;7.78;1.00;;;;;;;-146.18;100.00;67994.34;9992121;29;20195;-67
2021/05/06 13:21:50;;;;;;;4.90;0.90;;;;;;;-146.18;100.00;67994.34;9990400;29;20533;-68
2021/05/06 13:26:49;;;;;;;5.40;1.00;;;;;;;-146.18;100.00;67994.34;9985437;29;20100;-67
2021/05/06 13:31:49;;;;;;;4.80;0.85;;;;;;;-146.18;100.00;67994.34;9988525;29;20174;-67
2021/05/06 13:36:59;;;;;;;5.72;1.58;;;;;;;-146.18;100.00;67994.34;9992524;29;20127;-67
2021/05/06 13:41:55;;;;;;;7.45;1.00;;;;;;;-146.18;100.00;67994.34;9995706;29;20064;-67
2021/05/06 13:46:53;;;;;;;5.47;1.00;;;;;;;-146.18;100.00;67994.34;9991813;29;20467;-67
2021/05/06 13:51:52;;;;;;;5.57;1.00;;;;;;;-146.18;100.00;67994.34;9985976;29;20560;-67
2021/05/06 13:56:48;;;;;;;4.15;0.80;;;;;;;-146.18;100.00;67994.34;9991793;29;20099;-68
2021/05/06 14:01:52;;;;;;;5.93;0.57;;;;;;;-146.18;100.00;67994.34;9994814;29;20152;-68
2021/05/06 14:06:48;;;;;;;10.63;1.45;;;;;;;-146.18;100.00;67994.34;9995582;29;20056;-68
2021/05/06 14:11:46;;;;;;;5.53;1.08;;;;;;;-146.18;100.00;67994.34;9994011;29;20051;-68
2021/05/06 14:16:43;;;;;;;6.22;1.17;;;;;;;-146.18;100.00;67994.34;9991528;29;20071;-67
2021/05/06 14:21:41;;;;;;;6.40;1.50;;;;;;;-146.18;100.00;67994.34;9990439;29;20052;-67
2021/05/06 14:26:38;;;;;;;5.68;1.20;;;;;;;-146.18;100.00;67994.34;9989053;29;20103;-67
2021/05/06 14:31:34;;;;;;;5.80;1.27;;;;;;;-146.18;100.00;67994.34;9989443;29;20044;-67
2021/05/06 14:36:30;;;;;;;8.70;1.50;;;;;;;-146.18;100.00;67994.34;9987294;29;20118;-68
2021/05/06 14:41:26;;;;;;;4.75;1.00;;;;;;;-146.18;100.00;67994.34;9980269;29;20050;-67
2021/05/06 14:46:22;;;;;;;5.57;0.75;;;;;;;-146.18;100.00;67994.34;9992502;29;20578;-69
2021/05/06 14:51:18;;;;;;;7.28;1.17;;;;;;;-146.18;100.00;67994.34;9993963;29;20075;-70
2021/05/06 14:56:14;;;;;;;8.88;1.52;;;;;;;-146.18;100.00;67994.34;9991548;29;20052;-69
2021/05/06 15:01:10;;;;;;;8.38;1.95;;;;;;;-146.18;100.00;67994.34;9985354;29;20055;-69
2021/05/06 15:06:06;;;;;;;9.35;2.63;;;;;;;-146.18;100.00;67994.34;9991014;29;20470;-68
2021/05/06 15:11:02;;;;;;;5.18;1.40;;;;;;;-146.18;100.00;67994.34;9993568;29;20519;-69
2021/05/06 15:15:58;;;;;;;10.60;1.65;;;;;;;-146.18;100.00;67994.34;9992578;29;20052;-69
2021/05/06 15:20:54;;;;;;;6.63;1.20;;;;;;;-146.18;100.00;67994.34;9968353;29;20053;-69
2021/05/06 15:25:50;;;;;;;5.20;1.20;;;;;;;-146.18;100.00;67994.34;9985146;29;20062;-68
2021/05/06 15:30:48;;;;;;;8.43;1.20;;;;;;;-146.18;100.00;67994.34;9992282;29;20044;-68
2021/05/06 15:35:44;;;;;;;10.07;0.98;;;;;;;-146.18;100.00;67994.34;9992384;29;20060;-68
2021/05/06 15:40:40;;;;;;;6.63;1.00;;;;;;;-146.18;100.00;67994.34;9992048;29;20048;-68
2021/05/06 15:45:41;;;;;;;6.97;1.65;;;;;;;-146.18;100.00;67994.34;9989522;29;20048;-69
2021/05/06 15:50:38;;;;;;;7.75;1.60;;;;;;;-146.18;100.00;67994.34;9987732;29;20053;-69
2021/05/06 15:55:34;;;;;;;5.68;1.40;;;;;;;-146.18;100.00;67994.34;9990009;29;20048;-67
2021/05/06 16:00:31;;;;;;;5.28;1.48;;;;;;;-146.18;100.00;67994.34;9990255;29;20070;-67
2021/05/06 16:05:29;;;;;;;8.20;2.45;;;;;;;-146.18;100.00;67994.34;9974363;29;20060;-69
2021/05/06 16:10:25;;;;;;;7.18;1.63;;;;;;;-146.18;100.00;67994.34;9966284;29;20124;-68
2021/05/06 16:15:22;;;;;;;8.82;2.40;;;;;;;-146.18;100.00;67994.34;9975376;29;20108;-69
2021/05/06 16:20:20;;;;;;;5.97;1.98;;;;;;;-146.18;100.00;67994.34;9966301;29;20053;-70
2021/05/06 16:25:16;;;;;;;4.85;1.40;;;;;;;-146.18;100.00;67994.34;9981734;29;20047;-66
2021/05/06 16:30:13;;;;;;;5.13;0.82;;;;;;;-146.18;100.00;67994.34;9971127;29;20075;-67
2021/05/06 16:35:15;;;;;;;7.30;1.25;;;;;;;-146.18;100.00;67994.34;9997245;29;20083;-67
2021/05/06 16:45:23;;;;;;;7.32;1.52;;;;;;;-146.18;100.00;67994.34;9982591;29;20056;-67
2021/05/06 16:50:19;;;;;;;4.53;0.90;;;;;;;-146.18;100.00;67994.34;9984736;29;20052;-66
2021/05/06 16:55:16;;;;;;;4.00;1.27;;;;;;;-146.18;100.00;67994.34;9982883;29;20068;-67
2021/05/06 17:00:13;;;;;;;6.05;1.10;;;;;;;-146.18;100.00;67994.34;9973876;29;20451;-66
2021/05/06 17:05:13;;;;;;;5.15;1.40;;;;;;;-146.18;100.00;67994.34;9980668;29;20041;-67
2021/05/06 17:10:10;;;;;;;10.10;1.65;;;;;;;-146.18;100.00;67994.34;9985490;29;20559;-67
2021/05/06 17:15:08;;;;;;;7.72;1.20;;;;;;;-146.18;100.00;67994.34;9989401;29;20052;-67
2021/05/06 17:20:06;;;;;;;4.43;0.90;;;;;;;-146.18;100.00;67994.34;9990192;29;20060;-62
2021/05/06 17:25:03;;;;;;;5.65;1.40;;;;;;;-146.18;100.00;67994.34;9980032;29;20048;-66
2021/05/06 17:29:59;;;;;;;7.43;2.92;;;;;;;-146.18;100.00;67994.34;9989478;29;20177;-66
2021/05/06 17:34:55;;;;;;;4.63;0.90;;;;;;;-146.18;100.00;67994.34;9961579;29;20545;-67
2021/05/06 17:39:52;;;;;;;7.05;2.00;;;;;;;-146.18;100.00;67994.34;9971769;29;20052;-66
2021/05/06 17:44:48;;;;;;;4.43;1.30;;;;;;;-146.18;100.00;67994.34;9978882;29;20052;-67
2021/05/06 17:49:44;;;;;;;7.82;0.90;;;;;;;-146.18;100.00;67994.34;9974032;29;20056;-66
2021/05/06 17:54:40;;;;;;;7.20;1.77;;;;;;;-146.18;100.00;67994.34;9980159;29;20047;-66
2021/05/06 17:59:36;;;;;;;10.18;2.35;;;;;;;-146.18;100.00;67994.34;9982662;29;20056;-66
2021/05/06 18:04:33;;;;;;;5.00;1.67;;;;;;;-146.18;100.00;67994.34;9984298;29;20048;-66
2021/05/06 18:09:36;;;;;;;8.15;2.42;;;;;;;-146.18;100.00;67994.34;9982912;29;20071;-66
2021/05/06 18:14:32;;;;;;;9.10;2.33;;;;;;;-146.18;100.00;67994.34;9982605;29;20131;-67
2021/05/06 18:19:29;;;;;;;5.55;1.30;;;;;;;-146.18;100.00;67994.34;9984000;29;20044;-67
2021/05/06 18:24:26;;;;;;;5.03;1.55;;;;;;;-146.18;100.00;67994.34;9977066;29;20044;-65
2021/05/06 18:29:23;;;;;;;5.45;1.50;;;;;;;-146.18;100.00;67994.34;9979996;29;20052;-66
2021/05/06 18:34:19;;;;;;;7.53;1.90;;;;;;;-146.18;100.00;67994.34;9983450;29;20052;-67
2021/05/06 18:39:16;;;;;;;7.82;2.00;;;;;;;-146.18;100.00;67994.34;9975481;29;20044;-67
2021/05/06 18:44:16;;;;;;;15.27;3.25;;;;;;;-146.18;100.00;67994.34;9983622;29;20451;-66
2021/05/06 18:49:16;;;;;;;9.55;3.20;;;;;;;-146.18;100.00;67994.34;9976549;29;20562;-65
2021/05/06 18:54:12;;;;;;;7.05;1.30;;;;;;;-146.18;100.00;67994.34;9979287;29;20251;-64
2021/05/06 18:59:08;;;;;;;11.82;1.83;;;;;;;-146.18;100.00;67994.34;9978244;29;20049;-66
2021/05/06 19:04:04;;;;;;;6.63;1.50;;;;;;;-146.18;100.00;67994.34;9982639;29;20107;-65
2021/05/06 19:09:02;;;;;;;6.95;2.08;;;;;;;-146.18;100.00;67994.34;9981569;29;20055;-65
2021/05/06 19:13:58;;;;;;;7.05;2.35;;;;;;;-146.18;100.00;67994.34;9976269;29;20095;-66
2021/05/06 19:18:54;;;;;;;6.57;1.52;;;;;;;-146.18;100.00;67994.34;9977780;29;20063;-65
2021/05/06 19:23:51;;;;;;;6.97;1.63;;;;;;;-146.18;100.00;67994.34;9977829;29;20067;-66
2021/05/06 19:28:47;;;;;;;6.50;1.70;;;;;;;-146.18;100.00;67994.34;9986695;29;20142;-66
2021/05/06 19:33:43;;;;;;;11.23;1.75;;;;;;;-146.18;100.00;67994.34;9982677;29;20052;-66
2021/05/06 19:38:41;;;;;;;8.00;2.20;;;;;;;-146.18;100.00;67994.34;9969702;29;20580;-67
2021/05/06 19:43:44;;;;;;;10.00;1.48;;;;;;;-146.18;100.00;67994.34;9975837;29;20055;-67
2021/05/06 19:48:40;;;;;;;5.30;1.20;;;;;;;-146.18;100.00;67994.34;9979001;29;20135;-69
2021/05/06 19:53:37;;;;;;;8.80;2.35;;;;;;;-146.18;100.00;67994.34;9976433;29;20082;-66
2021/05/06 19:58:33;;;;;;;9.70;2.85;;;;;;;-146.18;100.00;67994.34;9977565;29;20051;-66
2021/05/06 20:03:30;;;;;;;9.13;2.50;;;;;;;-146.18;100.00;67994.34;9981808;29;20051;-67
2021/05/06 20:08:26;;;;;;;8.27;1.98;;;;;;;-146.18;100.00;67994.34;9983161;29;20048;-69
2021/05/06 20:13:24;;;;;;;5.60;1.70;;;;;;;-146.18;100.00;67994.34;9980210;29;20105;-67
2021/05/06 20:18:21;;;;;;;6.53;2.00;;;;;;;-146.18;100.00;67994.34;9977720;29;20487;-68
2021/05/06 20:23:17;;;;;;;5.95;1.40;;;;;;;-146.18;100.00;67994.34;9975610;29;20052;-64
2021/05/06 20:28:13;;;;;;;6.07;1.52;;;;;;;-146.18;100.00;67994.34;9974635;29;20123;-65
2021/05/06 20:33:09;;;;;;;4.03;1.30;;;;;;;-146.18;100.00;67994.34;9977469;29;20051;-68
2021/05/06 20:38:05;;;;;;;9.25;1.90;;;;;;;-146.18;100.00;67994.34;9976503;29;20072;-68
2021/05/06 20:43:10;;;;;;;8.48;1.60;;;;;;;-146.18;100.00;67994.34;9981801;29;20464;-67
2021/05/06 20:48:07;;;;;;;4.35;1.52;;;;;;;-146.18;100.00;67994.34;9981124;29;20388;-67
2021/05/06 20:53:03;;;;;;;4.63;1.20;;;;;;;-146.18;100.00;67994.34;9978755;29;20590;-66
2021/05/06 20:57:59;;;;;;;8.10;1.60;;;;;;;-146.18;100.00;67994.34;9988441;29;20059;-66
2021/05/06 21:02:55;;;;;;;6.22;1.45;;;;;;;-146.18;100.00;67994.34;9988459;29;20052;-66
2021/05/06 21:07:53;;;;;;;7.25;2.00;;;;;;;-146.18;100.00;67994.34;9983540;29;20112;-67
2021/05/06 21:12:49;;;;;;;8.60;2.22;;;;;;;-146.18;100.00;67994.34;9990657;29;20048;-67
2021/05/06 21:17:45;;;;;;;6.00;1.50;;;;;;;-146.18;100.00;67994.34;9988103;29;20526;-67
2021/05/06 21:22:41;;;;;;;5.10;1.40;;;;;;;-146.18;100.00;67994.34;9980182;29;20086;-67
2021/05/06 21:27:37;;;;;;;7.03;1.63;;;;;;;-146.18;100.00;67994.34;9986420;29;20055;-67
2021/05/06 21:32:32;;;;;;;7.70;2.22;;;;;;;-146.18;100.00;67994.34;9989632;29;20044;-67
2021/05/06 21:37:29;;;;;;;9.07;2.20;;;;;;;-146.18;100.00;67994.34;9990929;29;20044;-67
2021/05/06 21:42:25;;;;;;;9.30;2.45;;;;;;;-146.18;100.00;67994.34;9991128;29;20421;-65
2021/05/06 21:47:21;;;;;;;8.25;2.15;;;;;;;-146.18;100.00;67994.34;9985634;29;20045;-66
2021/05/06 21:52:17;;;;;;;6.20;1.73;;;;;;;-146.18;100.00;67994.34;9988577;29;20511;-66
2021/05/06 21:57:14;;;;;;;9.05;2.03;;;;;;;-146.18;100.00;67994.34;9984018;29;20516;-65
2021/05/06 22:02:10;;;;;;;7.25;1.92;;;;;;;-146.18;100.00;67994.34;9997972;29;20052;-66
2021/05/06 22:07:06;;;;;;;4.75;1.70;;;;;;;-146.18;100.00;67994.34;9989835;29;20048;-67
2021/05/06 22:12:03;;;;;;;7.82;1.75;;;;;;;-146.18;100.00;67994.34;9984169;29;20080;-66
2021/05/06 22:16:58;;;;;;;5.43;1.65;;;;;;;-146.18;100.00;67994.34;9978350;29;20143;-69
2021/05/06 22:21:54;;;;;;;8.80;1.60;;;;;;;-146.18;100.00;67994.34;9990072;29;20052;-68
2021/05/06 22:26:51;;;;;;;5.43;1.60;;;;;;;-146.18;100.00;67994.34;9991110;29;20047;-69
2021/05/06 22:31:47;;;;;;;10.85;1.75;;;;;;;-146.18;100.00;67994.34;9994936;29;20048;-68
2021/05/06 22:36:44;;;;;;;8.95;2.00;;;;;;;-146.18;100.00;67994.34;9986675;29;20595;-68
2021/05/06 22:41:40;;;;;;;6.80;1.95;;;;;;;-146.18;100.00;67994.34;9981916;29;20139;-68
2021/05/06 22:46:36;;;;;;;11.30;2.03;;;;;;;-146.18;100.00;67994.34;9983808;29;20463;-69
2021/05/06 22:51:32;;;;;;;6.43;2.20;;;;;;;-146.18;100.00;67994.34;9993379;29;20490;-68
2021/05/06 22:56:29;;;;;;;7.80;2.13;;;;;;;-146.18;100.00;67994.34;9989685;29;20044;-66
2021/05/06 23:01:24;;;;;;;8.20;2.05;;;;;;;-146.18;100.00;67994.34;9991453;29;20443;-70
2021/05/06 23:06:20;;;;;;;5.10;1.80;;;;;;;-146.18;100.00;67994.34;9984983;29;20041;-69
2021/05/06 23:11:16;;;;;;;7.35;1.80;;;;;;;-146.18;100.00;67994.34;9980804;29;20146;-68
2021/05/06 23:16:13;;;;;;;7.32;1.90;;;;;;;-146.18;100.00;67994.34;9966804;29;20044;-68
2021/05/06 23:21:09;;;;;;;6.93;1.65;;;;;;;-146.18;100.00;67994.34;9990076;29;20060;-67
2021/05/06 23:26:09;;;;;;;8.02;1.95;;;;;;;-146.18;100.00;67994.34;9984480;29;20056;-66
2021/05/06 23:31:05;;;;;;;11.68;2.70;;;;;;;-146.18;100.00;67994.34;9991791;29;20087;-67
2021/05/06 23:36:01;;;;;;;9.77;2.17;;;;;;;-146.18;100.00;67994.34;9984148;29;20099;-66
2021/05/06 23:40:57;;;;;;;9.60;2.42;;;;;;;-146.18;100.00;67994.34;9985846;29;20052;-68
2021/05/06 23:45:53;;;;;;;7.55;1.73;;;;;;;-146.18;100.00;67994.34;9990769;29;20060;-68
2021/05/06 23:50:54;;;;;;;7.25;1.55;;;;;;;-146.18;100.00;67994.34;9981056;29;20052;-66
2021/05/06 23:55:54;;;;;;;9.70;1.88;;;;;;;-146.18;100.00;67994.34;9983118;29;20126;-66
